createdAt,value
2022-08-20T00:01:09.626Z,1.92
2022-08-20T00:03:38.387Z,1.90
2022-08-20T00:06:10.417Z,1.77
2022-08-20T00:08:37.630Z,1.70
2022-08-20T00:11:08.985Z,2.00
2022-08-20T00:16:04.438Z,1.92
2022-08-20T00:18:31.358Z,1.63
2022-08-20T00:20:58.373Z,1.52
2022-08-20T00:23:25.300Z,2.05
2022-08-20T00:25:52.400Z,1.63
2022-08-20T00:28:20.435Z,1.58
2022-08-20T00:30:47.932Z,1.73
2022-08-20T00:33:16.836Z,1.42
2022-08-20T00:35:46.812Z,1.85
2022-08-20T00:38:13.703Z,1.60
2022-08-20T00:40:43.749Z,1.58
2022-08-20T00:43:28.975Z,1.45
2022-08-20T00:45:56.163Z,1.40
2022-08-20T00:48:23.266Z,1.30
2022-08-20T00:50:50.385Z,1.30
2022-08-20T00:53:20.005Z,1.40
2022-08-20T00:55:46.667Z,1.65
2022-08-20T00:58:13.467Z,1.60
2022-08-20T01:00:45.003Z,1.55
2022-08-20T01:03:14.864Z,1.30
2022-08-20T01:05:43.514Z,1.25
2022-08-20T01:08:10.686Z,1.40
2022-08-20T01:14:30.213Z,1.50
2022-08-20T01:17:01.711Z,1.52
2022-08-20T01:19:33.061Z,1.60
2022-08-20T01:24:35.650Z,1.60
2022-08-20T01:27:05.583Z,1.63
2022-08-20T01:29:37.252Z,1.70
2022-08-20T01:32:04.391Z,1.33
2022-08-20T01:34:30.923Z,1.83
2022-08-20T01:36:58.466Z,2.30
2022-08-20T01:39:28.335Z,2.60
2022-08-20T01:42:03.124Z,2.47
2022-08-20T01:44:32.147Z,2.53
2022-08-20T01:47:09.809Z,3.35
2022-08-20T01:49:41.810Z,2.60
2022-08-20T01:52:10.628Z,3.53
2022-08-20T01:54:37.333Z,3.53
2022-08-20T01:57:11.875Z,3.50
2022-08-20T01:59:40.844Z,3.60
2022-08-20T02:02:09.037Z,3.25
2022-08-20T02:04:37.143Z,3.58
2022-08-20T02:07:06.557Z,3.33
2022-08-20T02:09:35.859Z,3.75
2022-08-20T02:12:04.003Z,3.72
2022-08-20T02:14:30.847Z,3.00
2022-08-20T02:17:00.128Z,3.25
2022-08-20T02:19:32.310Z,3.70
2022-08-20T02:22:01.707Z,3.85
2022-08-20T02:24:28.569Z,3.53
2022-08-20T02:26:55.386Z,4.00
2022-08-20T02:29:22.617Z,4.30
2022-08-20T02:32:24.575Z,3.90
2022-08-20T02:34:37.926Z,3.67
2022-08-20T02:37:07.025Z,3.80
2022-08-20T02:39:34.663Z,3.70
2022-08-20T02:42:01.541Z,3.53
2022-08-20T02:44:28.190Z,3.70
2022-08-20T02:46:54.705Z,3.33
2022-08-20T02:49:21.510Z,2.63
2022-08-20T02:51:49.378Z,3.67
2022-08-20T02:54:16.074Z,2.92
2022-08-20T02:56:42.601Z,3.20
2022-08-20T02:59:09.462Z,3.17
2022-08-20T03:01:39.157Z,3.17
2022-08-20T03:04:05.864Z,3.05
2022-08-20T03:06:32.662Z,3.05
2022-08-20T03:09:00.542Z,2.70
2022-08-20T03:11:27.073Z,2.97
2022-08-20T03:13:53.750Z,3.05
2022-08-20T03:16:20.277Z,2.95
2022-08-20T03:18:47.853Z,3.55
2022-08-20T03:21:18.729Z,3.08
2022-08-20T03:23:45.256Z,3.33
2022-08-20T03:26:13.809Z,3.25
2022-08-20T03:28:41.348Z,2.90
2022-08-20T03:31:08.338Z,3.05
2022-08-20T03:33:35.516Z,2.78
2022-08-20T03:36:02.357Z,3.05
2022-08-20T03:38:32.367Z,2.47
2022-08-20T03:41:00.451Z,2.33
2022-08-20T03:43:28.972Z,2.78
2022-08-20T03:45:55.893Z,2.67
2022-08-20T03:48:22.840Z,2.20
2022-08-20T03:50:50.260Z,3.00
2022-08-20T03:53:17.521Z,2.88
2022-08-20T03:55:54.397Z,3.35
2022-08-20T03:58:34.781Z,2.88
2022-08-20T04:01:05.972Z,3.20
2022-08-20T04:03:32.826Z,2.80
2022-08-20T04:05:59.463Z,3.17
2022-08-20T04:08:28.672Z,2.70
2022-08-20T04:10:56.926Z,2.90
2022-08-20T04:13:24.372Z,2.55
2022-08-20T04:15:51.842Z,2.53
2022-08-20T04:18:19.709Z,2.70
2022-08-20T04:20:47.641Z,2.30
2022-08-20T04:23:14.267Z,2.65
2022-08-20T04:25:43.195Z,2.45
2022-08-20T04:28:12.613Z,2.88
2022-08-20T04:30:41.305Z,2.65
2022-08-20T04:33:14.169Z,3.33
2022-08-20T04:35:47.166Z,2.67
2022-08-20T04:38:15.525Z,2.55
2022-08-20T04:40:42.147Z,2.83
2022-08-20T04:43:08.702Z,3.25
2022-08-20T04:45:39.705Z,2.60
2022-08-20T04:48:09.562Z,2.70
2022-08-20T04:50:40.070Z,2.50
2022-08-20T04:53:10.281Z,3.17
2022-08-20T04:55:39.351Z,3.60
2022-08-20T04:58:08.293Z,3.28
2022-08-20T05:00:35.251Z,2.88
2022-08-20T05:03:01.782Z,2.75
2022-08-20T05:05:28.546Z,2.67
2022-08-20T05:07:55.277Z,2.95
2022-08-20T05:10:24.046Z,2.90
2022-08-20T05:12:56.451Z,2.97
2022-08-20T05:15:24.085Z,2.78
2022-08-20T05:17:55.205Z,3.10
2022-08-20T05:20:22.514Z,3.25
2022-08-20T05:22:49.033Z,3.00
2022-08-20T05:25:15.676Z,3.90
2022-08-20T05:27:47.637Z,3.88
2022-08-20T05:30:14.770Z,3.45
2022-08-20T05:32:44.474Z,3.60
2022-08-20T05:35:11.442Z,3.53
2022-08-20T05:37:39.598Z,4.55
2022-08-20T05:40:09.872Z,3.60
2022-08-20T05:42:36.442Z,3.45
2022-08-20T05:45:11.173Z,3.80
2022-08-20T05:47:42.848Z,3.63
2022-08-20T05:50:11.027Z,4.55
2022-08-20T05:52:47.352Z,3.90
2022-08-20T05:55:13.884Z,4.18
2022-08-20T05:57:41.153Z,4.03
2022-08-20T06:00:13.424Z,4.35
2022-08-20T06:02:40.418Z,4.43
2022-08-20T06:05:07.558Z,4.07
2022-08-20T06:07:34.160Z,5.70
2022-08-20T06:10:00.740Z,4.43
2022-08-20T06:12:27.313Z,3.55
2022-08-20T06:14:53.832Z,3.72
2022-08-20T06:17:22.186Z,4.00
2022-08-20T06:19:49.019Z,4.07
2022-08-20T06:22:18.827Z,3.80
2022-08-20T06:24:51.798Z,3.65
2022-08-20T06:27:19.275Z,3.13
2022-08-20T06:29:46.209Z,2.92
2022-08-20T06:32:13.085Z,3.30
2022-08-20T06:34:50.216Z,3.80
2022-08-20T06:37:20.178Z,5.97
2022-08-20T06:39:46.883Z,8.02
2022-08-20T06:42:13.631Z,8.23
2022-08-20T06:44:48.493Z,8.35
2022-08-20T06:47:15.687Z,8.70
2022-08-20T06:49:43.967Z,9.65
2022-08-20T06:52:11.684Z,9.85
2022-08-20T06:54:38.387Z,10.40
2022-08-20T06:57:05.275Z,10.93
2022-08-20T06:59:31.941Z,9.95
2022-08-20T07:01:58.701Z,11.23
2022-08-20T07:04:26.610Z,10.73
2022-08-20T07:06:55.614Z,11.35
2022-08-20T07:09:22.231Z,11.15
2022-08-20T07:11:49.021Z,11.25
2022-08-20T07:14:16.393Z,10.90
2022-08-20T07:16:43.157Z,11.10
2022-08-20T07:19:10.285Z,9.85
2022-08-20T07:21:36.922Z,10.65
2022-08-20T07:24:05.383Z,10.82
2022-08-20T07:26:32.085Z,9.68
2022-08-20T07:28:58.836Z,8.90
2022-08-20T07:31:25.378Z,8.98
2022-08-20T07:33:53.930Z,8.15
2022-08-20T07:36:21.360Z,8.25
2022-08-20T07:38:47.983Z,8.75
2022-08-20T07:41:16.022Z,8.32
2022-08-20T07:43:44.001Z,7.88
2022-08-20T07:46:11.267Z,7.97
2022-08-20T07:48:40.283Z,8.10
2022-08-20T07:51:08.563Z,7.68
2022-08-20T07:53:37.558Z,7.82
2022-08-20T07:56:06.202Z,7.85
2022-08-20T07:58:34.486Z,7.50
2022-08-20T08:01:01.326Z,7.40
2022-08-20T08:03:39.865Z,7.38
2022-08-20T08:06:14.936Z,7.95
2022-08-20T08:08:44.849Z,8.82
2022-08-20T08:11:12.117Z,7.93
2022-08-20T08:13:41.364Z,8.07
2022-08-20T08:16:09.803Z,8.45
2022-08-20T08:18:44.833Z,8.63
2022-08-20T08:21:12.458Z,9.02
2022-08-20T08:23:39.357Z,8.57
2022-08-20T08:26:06.102Z,8.63
2022-08-20T08:28:32.651Z,8.57
2022-08-20T08:31:00.666Z,8.30
2022-08-20T08:33:30.796Z,8.65
2022-08-20T08:35:59.909Z,9.23
2022-08-20T08:38:26.466Z,9.27
2022-08-20T08:40:59.153Z,8.73
2022-08-20T08:43:31.814Z,8.63
2022-08-20T08:46:04.779Z,8.10
2022-08-20T08:48:36.185Z,8.35
2022-08-20T08:51:05.823Z,7.70
2022-08-20T08:53:37.254Z,8.52
2022-08-20T08:56:05.840Z,9.43
2022-08-20T08:58:32.579Z,8.95
2022-08-20T09:01:05.765Z,8.60
2022-08-20T09:03:39.048Z,9.30
2022-08-20T09:06:06.281Z,9.80
2022-08-20T09:08:40.170Z,9.50
2022-08-20T09:11:08.027Z,9.13
2022-08-20T09:13:34.783Z,8.88
2022-08-20T09:16:03.310Z,9.00
2022-08-20T09:18:29.946Z,7.78
2022-08-20T09:20:56.695Z,6.95
2022-08-20T09:23:23.505Z,7.50
2022-08-20T09:25:50.109Z,7.40
2022-08-20T09:28:16.660Z,7.18
2022-08-20T09:30:43.610Z,6.78
2022-08-20T09:33:13.457Z,7.43
2022-08-20T09:35:40.107Z,8.27
2022-08-20T09:38:07.305Z,7.78
2022-08-20T09:40:34.177Z,7.80
2022-08-20T09:43:00.728Z,8.20
2022-08-20T09:45:27.354Z,8.57
2022-08-20T09:47:56.470Z,8.20
2022-08-20T09:50:26.833Z,8.13
2022-08-20T09:52:55.176Z,8.93
2022-08-20T09:55:28.096Z,9.13
2022-08-20T09:57:54.819Z,10.82
2022-08-20T10:00:21.543Z,9.80
2022-08-20T10:02:48.528Z,9.48
2022-08-20T10:05:15.342Z,9.77
2022-08-20T10:07:43.722Z,10.52
2022-08-20T10:10:13.403Z,10.13
2022-08-20T10:12:40.054Z,10.45
2022-08-20T10:15:07.809Z,9.48
2022-08-20T10:17:37.197Z,9.27
2022-08-20T10:20:04.895Z,9.55
2022-08-20T10:22:31.507Z,8.80
2022-08-20T10:24:59.413Z,8.50
2022-08-20T10:27:26.040Z,8.50
2022-08-20T10:29:52.648Z,8.35
2022-08-20T10:32:19.485Z,7.45
2022-08-20T10:34:47.652Z,7.47
2022-08-20T10:37:16.519Z,8.35
2022-08-20T10:39:43.385Z,7.10
2022-08-20T10:42:11.585Z,7.72
2022-08-20T10:44:39.126Z,7.78
2022-08-20T10:47:18.160Z,7.47
2022-08-20T10:49:45.129Z,8.07
2022-08-20T10:52:11.698Z,6.85
2022-08-20T10:54:38.409Z,6.30
2022-08-20T10:57:05.532Z,6.70
2022-08-20T10:59:38.093Z,6.55
2022-08-20T11:02:04.912Z,6.22
2022-08-20T11:04:31.665Z,6.03
2022-08-20T11:06:58.276Z,5.50
2022-08-20T11:09:24.821Z,5.72
2022-08-20T11:11:51.415Z,5.85
2022-08-20T11:14:17.962Z,5.30
2022-08-20T11:16:45.881Z,5.63
2022-08-20T11:19:12.407Z,5.50
2022-08-20T11:21:39.030Z,5.10
2022-08-20T11:24:05.843Z,5.63
2022-08-20T11:26:32.481Z,4.93
2022-08-20T11:28:59.024Z,4.82
2022-08-20T11:31:25.720Z,4.70
2022-08-20T11:33:53.664Z,4.50
2022-08-20T11:36:20.313Z,4.22
2022-08-20T11:38:46.858Z,4.40
2022-08-20T11:41:13.495Z,3.92
2022-08-20T11:43:40.998Z,4.70
2022-08-20T11:46:07.614Z,4.07
2022-08-20T11:48:34.145Z,4.15
2022-08-20T11:51:02.145Z,4.10
2022-08-20T11:53:28.699Z,4.47
2022-08-20T11:55:56.201Z,4.25
2022-08-20T11:58:23.341Z,3.85
2022-08-20T12:00:50.001Z,4.32
2022-08-20T12:03:16.603Z,3.53
2022-08-20T12:05:45.124Z,3.30
2022-08-20T12:08:27.092Z,3.13
2022-08-20T12:10:54.576Z,2.60
2022-08-20T12:13:21.122Z,2.80
2022-08-20T12:15:57.613Z,2.72
2022-08-20T12:18:24.241Z,2.53
2022-08-20T12:20:53.930Z,2.83
2022-08-20T12:23:21.872Z,3.30
2022-08-20T12:25:49.621Z,2.65
2022-08-20T12:28:16.510Z,2.50
2022-08-20T12:30:43.191Z,3.15
2022-08-20T12:33:09.733Z,3.58
2022-08-20T12:35:36.485Z,3.15
2022-08-20T12:38:04.222Z,2.95
2022-08-20T12:40:33.499Z,3.30
2022-08-20T12:43:00.213Z,3.40
2022-08-20T12:45:26.987Z,3.90
2022-08-20T12:48:01.058Z,3.22
2022-08-20T12:50:31.442Z,3.90
2022-08-20T12:52:59.154Z,4.00
2022-08-20T12:55:26.408Z,3.92
2022-08-20T12:57:56.098Z,3.78
2022-08-20T13:00:25.751Z,3.97
2022-08-20T13:02:54.908Z,4.32
2022-08-20T13:05:21.889Z,4.30
2022-08-20T13:07:48.970Z,4.13
2022-08-20T13:10:17.806Z,4.75
2022-08-20T13:12:44.533Z,3.78
2022-08-20T13:15:13.508Z,4.50
2022-08-20T13:17:40.091Z,3.80
2022-08-20T13:20:09.765Z,3.83
2022-08-20T13:22:36.447Z,4.20
2022-08-20T13:25:03.668Z,3.90
2022-08-20T13:27:30.311Z,4.00
2022-08-20T13:29:58.808Z,3.70
2022-08-20T13:32:27.221Z,4.00
2022-08-20T13:34:54.478Z,4.25
2022-08-20T13:37:25.540Z,3.90
2022-08-20T13:39:52.529Z,4.72
2022-08-20T13:42:19.818Z,4.85
2022-08-20T13:44:46.856Z,4.60
2022-08-20T13:47:14.844Z,4.50
2022-08-20T13:49:42.989Z,4.57
2022-08-20T13:52:09.737Z,4.55
2022-08-20T13:54:36.559Z,4.60
2022-08-20T13:57:06.520Z,4.60
2022-08-20T13:59:36.529Z,4.65
2022-08-20T14:02:07.136Z,4.90
2022-08-20T14:04:34.263Z,4.80
2022-08-20T14:07:10.937Z,4.65
2022-08-20T14:09:38.899Z,3.85
2022-08-20T14:12:05.878Z,3.97
2022-08-20T14:14:32.521Z,3.70
2022-08-20T14:16:59.854Z,3.70
2022-08-20T14:19:28.134Z,3.63
2022-08-20T14:21:54.700Z,3.70
2022-08-20T14:24:22.682Z,3.72
2022-08-20T14:26:50.228Z,4.28
2022-08-20T14:29:16.858Z,4.38
2022-08-20T14:31:43.458Z,4.03
2022-08-20T14:34:10.072Z,4.20
2022-08-20T14:36:36.612Z,3.95
2022-08-20T14:39:03.346Z,4.60
2022-08-20T14:41:31.247Z,5.80
2022-08-20T14:43:57.865Z,4.00
2022-08-20T14:46:24.566Z,4.45
2022-08-20T14:48:54.327Z,3.90
2022-08-20T14:51:20.882Z,6.30
2022-08-20T14:53:47.693Z,5.20
2022-08-20T14:56:14.274Z,3.60
2022-08-20T14:58:42.247Z,4.38
2022-08-20T15:01:08.942Z,3.90
2022-08-20T15:03:35.781Z,3.72
2022-08-20T15:06:02.605Z,3.58
2022-08-20T15:08:29.338Z,3.33
2022-08-20T15:10:56.059Z,3.28
2022-08-20T15:13:22.872Z,2.88
2022-08-20T15:15:50.793Z,2.95
2022-08-20T15:18:17.458Z,3.10
2022-08-20T15:20:44.006Z,2.92
2022-08-20T15:23:10.818Z,2.60
2022-08-20T15:25:38.062Z,2.90
2022-08-20T15:28:07.867Z,2.30
2022-08-20T15:30:35.491Z,2.20
2022-08-20T15:33:03.575Z,2.15
2022-08-20T15:35:30.315Z,2.55
2022-08-20T15:37:58.802Z,2.47
2022-08-20T15:40:28.621Z,2.50
2022-08-20T15:42:55.828Z,2.20
2022-08-20T15:45:22.495Z,2.13
2022-08-20T15:47:53.200Z,1.85
2022-08-20T15:52:56.231Z,2.17
2022-08-20T15:55:22.931Z,1.75
2022-08-20T15:57:58.520Z,1.80
2022-08-20T16:00:28.879Z,2.03
2022-08-20T16:03:11.750Z,2.00
2022-08-20T16:05:50.498Z,2.20
2022-08-20T16:08:45.450Z,1.83
2022-08-20T16:11:24.074Z,1.88
2022-08-20T16:13:55.103Z,1.80
2022-08-20T16:16:30.847Z,1.77
2022-08-20T16:18:57.970Z,1.77
2022-08-20T16:21:32.531Z,2.15
2022-08-20T16:24:00.267Z,2.10
2022-08-20T16:26:43.809Z,1.80
2022-08-20T16:29:19.671Z,2.20
2022-08-20T16:31:49.956Z,2.28
2022-08-20T16:34:33.828Z,2.08
2022-08-20T16:37:17.590Z,2.05
2022-08-20T16:39:51.074Z,1.75
2022-08-20T16:42:23.083Z,2.05
2022-08-20T16:44:52.585Z,1.48
2022-08-20T16:47:21.800Z,1.52
2022-08-20T16:49:55.372Z,2.97
2022-08-20T16:52:23.410Z,1.70
2022-08-20T16:54:49.989Z,2.10
2022-08-20T16:57:17.579Z,1.50
2022-08-20T16:59:56.020Z,1.45
2022-08-20T17:02:23.903Z,1.50
2022-08-20T17:05:00.009Z,2.00
2022-08-20T17:07:40.403Z,1.98
2022-08-20T17:10:15.706Z,1.67
2022-08-20T17:12:43.097Z,1.30
2022-08-20T17:15:20.573Z,1.90
2022-08-20T17:17:47.202Z,1.63
2022-08-20T17:20:20.066Z,1.30
2022-08-20T17:22:51.666Z,1.50
2022-08-20T17:25:28.309Z,1.35
2022-08-20T17:27:58.192Z,1.60
2022-08-20T17:30:33.841Z,1.60
2022-08-20T17:33:02.706Z,1.50
2022-08-20T17:35:33.579Z,33.70
2022-08-20T17:38:03.322Z,1.92
2022-08-20T17:40:40.301Z,1.30
2022-08-20T17:43:09.325Z,1.35
2022-08-20T17:45:40.433Z,1.60
2022-08-20T17:48:12.086Z,1.30
2022-08-20T17:50:41.676Z,1.67
2022-08-20T17:53:22.659Z,1.58
2022-08-20T17:55:53.273Z,1.48
2022-08-20T17:58:24.559Z,1.50
2022-08-20T18:00:51.213Z,1.50
2022-08-20T18:03:21.898Z,1.48
2022-08-20T18:05:54.205Z,1.35
2022-08-20T18:08:35.048Z,1.20
2022-08-20T18:11:08.993Z,1.60
2022-08-20T18:13:54.987Z,1.60
2022-08-20T18:16:28.283Z,1.55
2022-08-20T18:18:58.346Z,1.60
2022-08-20T18:21:52.289Z,1.73
2022-08-20T18:24:26.234Z,1.67
2022-08-20T18:26:57.674Z,1.80
2022-08-20T18:29:30.410Z,1.58
2022-08-20T18:34:36.625Z,1.20
2022-08-20T18:37:06.306Z,1.70
2022-08-20T18:39:36.649Z,1.40
2022-08-20T18:42:06.912Z,1.50
2022-08-20T18:44:40.313Z,1.58
2022-08-20T18:47:20.119Z,1.73
2022-08-20T18:49:58.162Z,1.73
2022-08-20T18:52:28.813Z,2.53
2022-08-20T18:54:59.103Z,1.80
2022-08-20T18:57:35.634Z,1.50
2022-08-20T19:00:12.190Z,1.75
2022-08-20T19:02:54.570Z,1.63
2022-08-20T19:05:27.422Z,1.90
2022-08-20T19:07:57.646Z,1.98
2022-08-20T19:10:38.544Z,4.80
2022-08-20T19:13:22.269Z,5.40
2022-08-20T19:15:51.730Z,6.70
2022-08-20T19:18:24.846Z,4.30
2022-08-20T19:20:56.221Z,6.10
2022-08-20T19:25:56.795Z,3.40
2022-08-20T19:28:29.347Z,4.20
2022-08-20T19:30:57.048Z,4.50
2022-08-20T19:33:29.881Z,4.07
2022-08-20T19:36:10.031Z,3.30
2022-08-20T19:38:43.087Z,3.40
2022-08-20T19:41:17.916Z,4.57
2022-08-20T19:43:58.181Z,6.57
2022-08-20T19:46:29.948Z,5.50
2022-08-20T19:49:13.951Z,3.90
2022-08-20T19:51:53.114Z,2.97
2022-08-20T19:54:22.069Z,3.30
2022-08-20T19:56:50.038Z,3.10
2022-08-20T19:59:19.712Z,2.97
2022-08-20T20:01:52.863Z,3.20
2022-08-20T20:04:19.535Z,3.40
2022-08-20T20:06:48.456Z,3.35
2022-08-20T20:09:19.395Z,3.03
2022-08-20T20:11:48.871Z,3.38
2022-08-20T20:14:18.335Z,3.40
2022-08-20T20:16:48.591Z,2.55
2022-08-20T20:19:26.329Z,3.10
2022-08-20T20:22:04.848Z,3.53
2022-08-20T20:24:41.988Z,4.30
2022-08-20T20:27:13.672Z,3.97
2022-08-20T20:29:49.238Z,3.95
2022-08-20T20:32:20.420Z,3.75
2022-08-20T20:34:55.706Z,6.38
2022-08-20T20:37:49.170Z,3.47
2022-08-20T20:40:25.444Z,3.90
2022-08-20T20:43:02.660Z,3.97
2022-08-20T20:45:33.705Z,4.53
2022-08-20T20:48:09.433Z,4.28
2022-08-20T20:50:37.189Z,3.45
2022-08-20T20:53:03.789Z,3.97
2022-08-20T20:55:32.672Z,4.43
2022-08-20T20:58:00.209Z,4.15
2022-08-20T21:00:33.387Z,3.70
2022-08-20T21:03:03.738Z,3.60
2022-08-20T21:05:32.343Z,3.78
2022-08-20T21:08:02.057Z,3.58
2022-08-20T21:10:31.864Z,3.10
2022-08-20T21:12:58.657Z,3.70
2022-08-20T21:15:26.479Z,3.35
2022-08-20T21:17:57.699Z,3.42
2022-08-20T21:20:24.797Z,2.97
2022-08-20T21:22:52.664Z,2.78
2022-08-20T21:25:19.650Z,2.88
2022-08-20T21:27:50.667Z,2.90
2022-08-20T21:30:18.348Z,2.90
2022-08-20T21:32:45.121Z,2.55
2022-08-20T21:35:13.545Z,2.70
2022-08-20T21:37:40.288Z,2.80
2022-08-20T21:40:08.496Z,3.13
2022-08-20T21:42:37.062Z,3.35
2022-08-20T21:45:04.694Z,3.65
2022-08-20T21:47:31.243Z,4.10
2022-08-20T21:49:58.529Z,3.47
2022-08-20T21:52:26.448Z,3.65
2022-08-20T21:54:53.674Z,3.28
2022-08-20T21:57:23.750Z,2.70
2022-08-20T21:59:50.925Z,3.40
2022-08-20T22:02:18.746Z,3.63
2022-08-20T22:04:45.371Z,3.50
2022-08-20T22:07:12.887Z,3.60
2022-08-20T22:09:41.016Z,3.85
2022-08-20T22:12:15.860Z,3.53
2022-08-20T22:14:42.511Z,3.35
2022-08-20T22:17:09.063Z,3.10
2022-08-20T22:19:35.865Z,3.13
2022-08-20T22:22:02.775Z,2.97
2022-08-20T22:24:29.736Z,3.22
2022-08-20T22:26:57.821Z,3.92
2022-08-20T22:29:24.508Z,3.33
2022-08-20T22:31:51.375Z,3.67
2022-08-20T22:34:19.637Z,3.85
2022-08-20T22:36:46.984Z,4.03
2022-08-20T22:39:13.965Z,4.13
2022-08-20T22:41:40.683Z,3.65
2022-08-20T22:44:08.703Z,3.60
2022-08-20T22:46:41.501Z,3.13
2022-08-20T22:49:13.090Z,3.50
2022-08-20T22:51:41.700Z,3.30
2022-08-20T22:54:11.197Z,3.03
2022-08-20T22:56:38.320Z,3.13
2022-08-20T22:59:08.860Z,3.60
2022-08-20T23:01:36.197Z,3.88
2022-08-20T23:04:05.243Z,4.00
2022-08-20T23:06:32.014Z,3.40
2022-08-20T23:08:58.905Z,3.53
2022-08-20T23:11:25.869Z,3.58
2022-08-20T23:13:52.503Z,3.38
2022-08-20T23:16:20.470Z,3.90
2022-08-20T23:18:47.141Z,3.90
2022-08-20T23:21:13.685Z,3.50
2022-08-20T23:23:40.330Z,3.33
2022-08-20T23:26:07.240Z,3.28
2022-08-20T23:28:34.046Z,3.55
2022-08-20T23:31:00.940Z,3.42
2022-08-20T23:33:28.956Z,3.40
2022-08-20T23:35:55.882Z,3.38
2022-08-20T23:38:22.510Z,3.95
2022-08-20T23:40:49.074Z,3.50
2022-08-20T23:43:15.693Z,3.67
2022-08-20T23:45:42.303Z,3.50
2022-08-20T23:48:09.302Z,3.38
2022-08-20T23:50:38.110Z,3.75
2022-08-20T23:55:32.214Z,3.30
2022-08-20T23:57:59.138Z,3.25
